createdAt,value
2018-09-12T00:00:11.804Z,95.10
2018-09-12T00:02:44.509Z,95.10
2018-09-12T00:05:14.889Z,95.20
2018-09-12T00:07:46.354Z,95.30
2018-09-12T00:10:16.670Z,95.40
2018-09-12T00:12:47.365Z,95.50
2018-09-12T00:15:18.699Z,95.50
2018-09-12T00:17:49.427Z,95.50
2018-09-12T00:20:19.755Z,95.30
2018-09-12T00:22:50.588Z,95.10
2018-09-12T00:25:20.901Z,95.20
2018-09-12T00:27:52.468Z,95.30
2018-09-12T00:30:24.463Z,95.50
2018-09-12T00:32:54.829Z,95.60
2018-09-12T00:35:25.189Z,95.50
2018-09-12T00:37:55.798Z,95.50
2018-09-12T00:40:27.530Z,95.80
2018-09-12T00:42:58.107Z,95.80
2018-09-12T00:45:29.180Z,95.80
2018-09-12T00:47:59.676Z,95.90
2018-09-12T00:50:30.030Z,96.00
2018-09-12T00:53:00.732Z,96.00
2018-09-12T00:55:31.080Z,96.00
2018-09-12T00:58:01.680Z,96.00
2018-09-12T01:00:32.341Z,96.10
2018-09-12T01:03:02.793Z,96.00
2018-09-12T01:05:33.068Z,96.00
2018-09-12T01:08:03.620Z,96.00
2018-09-12T01:10:35.534Z,96.00
2018-09-12T01:13:07.469Z,96.00
2018-09-12T01:15:37.855Z,95.80
2018-09-12T01:18:12.469Z,95.90
2018-09-12T01:20:42.827Z,95.90
2018-09-12T01:23:15.253Z,95.80
2018-09-12T01:25:45.977Z,96.00
2018-09-12T01:28:16.374Z,96.10
2018-09-12T01:30:46.823Z,96.10
2018-09-12T01:33:17.281Z,96.20
2018-09-12T01:35:47.821Z,96.10
2018-09-12T01:38:18.515Z,95.90
2018-09-12T01:40:48.877Z,95.90
2018-09-12T01:43:19.746Z,95.90
2018-09-12T01:45:50.645Z,95.90
2018-09-12T01:48:21.215Z,96.10
2018-09-12T01:50:53.589Z,96.20
2018-09-12T01:53:23.973Z,96.10
2018-09-12T01:55:54.481Z,96.00
2018-09-12T01:58:25.005Z,96.10
2018-09-12T02:00:57.042Z,96.10
2018-09-12T02:03:29.796Z,96.00
2018-09-12T02:06:01.128Z,95.90
2018-09-12T02:08:31.540Z,96.10
2018-09-12T02:11:03.224Z,96.20
2018-09-12T02:13:34.762Z,96.30
2018-09-12T02:16:06.027Z,96.20
2018-09-12T02:18:36.434Z,96.30
2018-09-12T02:21:07.243Z,96.20
2018-09-12T02:23:37.596Z,96.20
2018-09-12T02:26:08.267Z,96.10
2018-09-12T02:28:40.009Z,96.10
2018-09-12T02:31:10.662Z,96.00
2018-09-12T02:33:42.153Z,95.90
2018-09-12T02:36:18.838Z,95.90
2018-09-12T02:38:49.249Z,96.10
2018-09-12T02:41:19.802Z,96.20
2018-09-12T02:43:50.168Z,96.30
2018-09-12T02:46:21.033Z,96.20
2018-09-12T02:48:53.240Z,96.30
2018-09-12T02:51:23.569Z,96.20
2018-09-12T02:53:54.427Z,95.90
2018-09-12T02:56:25.382Z,96.10
2018-09-12T02:58:55.741Z,96.10
2018-09-12T03:01:26.061Z,96.20
2018-09-12T03:04:18.457Z,96.40
2018-09-12T03:06:49.202Z,96.40
2018-09-12T03:09:19.515Z,96.40
2018-09-12T03:11:49.985Z,96.30
2018-09-12T03:14:20.391Z,96.20
2018-09-12T03:16:51.025Z,96.30
2018-09-12T03:19:25.732Z,96.50
2018-09-12T03:21:56.112Z,96.50
2018-09-12T03:24:27.155Z,96.70
2018-09-12T03:26:58.453Z,96.60
2018-09-12T03:29:29.412Z,96.50
2018-09-12T03:31:59.948Z,96.70
2018-09-12T03:34:31.328Z,96.70
2018-09-12T03:37:01.674Z,96.70
2018-09-12T03:39:32.276Z,96.70
2018-09-12T03:42:02.753Z,96.50
2018-09-12T03:44:33.070Z,96.50
2018-09-12T03:47:03.420Z,96.60
2018-09-12T03:49:34.288Z,96.70
2018-09-12T03:52:04.601Z,96.50
2018-09-12T03:54:34.950Z,96.70
2018-09-12T03:57:05.471Z,96.80
2018-09-12T03:59:36.198Z,97.00
2018-09-12T04:02:06.707Z,96.90
2018-09-12T04:04:37.169Z,96.80
2018-09-12T04:07:07.496Z,96.80
2018-09-12T04:09:37.868Z,96.80
2018-09-12T04:12:09.029Z,96.70
2018-09-12T04:14:39.467Z,96.60
2018-09-12T04:17:10.229Z,96.50
2018-09-12T04:19:40.697Z,96.60
2018-09-12T04:22:11.094Z,96.80
2018-09-12T04:24:42.267Z,96.80
2018-09-12T04:27:12.945Z,96.80
2018-09-12T04:29:43.422Z,96.80
2018-09-12T04:32:13.749Z,96.90
2018-09-12T04:34:44.521Z,97.20
2018-09-12T04:37:15.145Z,96.70
2018-09-12T04:39:45.957Z,96.90
2018-09-12T04:42:17.245Z,96.80
2018-09-12T04:44:48.246Z,96.70
2018-09-12T04:47:18.786Z,96.70
2018-09-12T04:49:49.269Z,96.70
2018-09-12T04:52:19.727Z,96.60
2018-09-12T04:54:50.362Z,96.50
2018-09-12T04:57:21.177Z,96.60
2018-09-12T04:59:52.099Z,96.70
2018-09-12T05:02:22.747Z,96.80
2018-09-12T05:04:53.410Z,96.70
2018-09-12T05:07:23.866Z,96.80
2018-09-12T05:09:54.642Z,96.90
2018-09-12T05:12:24.982Z,97.10
2018-09-12T05:14:56.780Z,97.00
2018-09-12T05:17:27.264Z,97.00
2018-09-12T05:19:58.413Z,97.30
2018-09-12T05:22:30.605Z,97.00
2018-09-12T05:25:01.447Z,97.10
2018-09-12T05:27:33.021Z,97.10
2018-09-12T05:30:04.825Z,97.10
2018-09-12T05:32:39.888Z,97.00
2018-09-12T05:35:13.742Z,97.00
2018-09-12T05:37:48.809Z,97.10
2018-09-12T05:40:21.096Z,97.20
2018-09-12T05:43:03.570Z,97.20
2018-09-12T05:50:50.161Z,97.30
2018-09-12T05:53:21.778Z,97.40
2018-09-12T06:09:43.961Z,97.30
2018-09-12T06:12:22.583Z,96.10
2018-09-12T06:14:55.703Z,95.70
2018-09-12T06:17:26.675Z,95.70
2018-09-12T06:20:12.014Z,95.20
2018-09-12T06:22:45.299Z,95.00
2018-09-12T06:25:19.370Z,95.00
2018-09-12T06:28:36.698Z,94.80
2018-09-12T06:31:17.977Z,94.70
2018-09-12T06:34:05.400Z,95.30
2018-09-12T06:40:29.411Z,94.90
2018-09-12T06:43:12.332Z,94.40
2018-09-12T06:45:42.859Z,94.40
2018-09-12T06:48:14.122Z,94.20
2018-09-12T06:50:44.814Z,93.90
2018-09-12T06:53:15.840Z,93.80
2018-09-12T06:55:46.337Z,93.70
2018-09-12T06:58:17.260Z,94.30
2018-09-12T07:00:54.972Z,94.30
2018-09-12T07:03:28.897Z,94.30
2018-09-12T07:06:02.912Z,93.70
2018-09-12T07:08:34.098Z,93.70
2018-09-12T07:11:06.274Z,93.60
2018-09-12T07:13:37.336Z,93.50
2018-09-12T07:16:08.258Z,93.20
2018-09-12T07:18:41.205Z,93.10
2018-09-12T07:21:13.636Z,93.00
2018-09-12T07:23:44.133Z,92.70
2018-09-12T07:26:14.504Z,92.90
2018-09-12T07:28:45.236Z,92.70
2018-09-12T07:31:15.667Z,92.30
2018-09-12T07:33:46.544Z,92.00
2018-09-12T07:36:17.036Z,91.80
2018-09-12T07:38:47.671Z,91.40
2018-09-12T07:41:19.221Z,91.50
2018-09-12T07:43:51.179Z,91.20
2018-09-12T07:46:23.327Z,90.90
2018-09-12T07:48:56.225Z,90.70
2018-09-12T07:51:27.017Z,90.50
2018-09-12T07:53:57.966Z,90.50
2018-09-12T07:56:28.647Z,90.20
2018-09-12T07:58:58.960Z,89.00
2018-09-12T08:01:29.385Z,88.60
2018-09-12T08:04:00.460Z,87.70
2018-09-12T08:06:31.076Z,87.00
2018-09-12T08:09:02.974Z,86.20
2018-09-12T08:11:33.884Z,86.20
2018-09-12T08:14:06.143Z,85.80
2018-09-12T08:16:38.314Z,84.70
2018-09-12T08:19:09.405Z,84.70
2018-09-12T08:21:40.927Z,83.60
2018-09-12T08:24:12.942Z,82.00
2018-09-12T08:26:43.410Z,81.90
2018-09-12T08:29:14.217Z,81.00
2018-09-12T08:31:44.862Z,81.30
2018-09-12T08:34:16.112Z,81.40
2018-09-12T08:36:47.525Z,81.80
2018-09-12T08:39:18.242Z,81.90
2018-09-12T08:41:48.656Z,80.60
2018-09-12T08:44:19.257Z,78.50
2018-09-12T08:46:50.269Z,77.90
2018-09-12T08:49:21.005Z,78.30
2018-09-12T08:51:53.898Z,80.40
2018-09-12T08:54:25.595Z,81.70
2018-09-12T08:56:56.332Z,79.20
2018-09-12T08:59:29.655Z,79.40
2018-09-12T09:02:01.437Z,79.20
2018-09-12T09:04:32.864Z,79.40
2018-09-12T09:07:03.737Z,77.90
2018-09-12T09:09:34.181Z,78.60
2018-09-12T09:12:05.441Z,78.90
2018-09-12T09:14:36.021Z,78.70
2018-09-12T09:17:07.197Z,76.90
2018-09-12T09:19:37.542Z,75.50
2018-09-12T09:22:08.233Z,75.50
2018-09-12T09:24:38.600Z,74.40
2018-09-12T09:27:09.322Z,74.60
2018-09-12T09:29:40.313Z,74.80
2018-09-12T09:32:10.669Z,73.30
2018-09-12T09:34:41.033Z,73.30
2018-09-12T09:37:11.763Z,72.30
2018-09-12T09:39:44.388Z,72.50
2018-09-12T09:42:15.845Z,71.30
2018-09-12T09:44:46.409Z,70.40
2018-09-12T09:47:19.549Z,69.60
2018-09-12T09:49:54.061Z,70.00
2018-09-12T09:52:33.472Z,68.90
2018-09-12T09:55:04.693Z,68.00
2018-09-12T09:57:37.299Z,67.20
2018-09-12T10:00:15.776Z,67.80
2018-09-12T10:02:51.700Z,66.30
2018-09-12T10:05:26.157Z,61.60
2018-09-12T10:08:01.971Z,61.10
2018-09-12T10:10:32.289Z,60.60
2018-09-12T10:13:02.930Z,59.90
2018-09-12T10:15:34.168Z,57.80
2018-09-12T10:18:05.703Z,57.30
2018-09-12T10:20:37.540Z,57.50
2018-09-12T10:23:08.584Z,55.50
2018-09-12T10:25:40.283Z,55.70
2018-09-12T10:28:11.965Z,55.80
2018-09-12T10:30:43.221Z,54.40
2018-09-12T10:33:17.195Z,54.80
2018-09-12T10:35:48.846Z,54.60
2018-09-12T10:38:21.134Z,55.10
2018-09-12T10:40:52.380Z,55.30
2018-09-12T10:43:22.754Z,53.90
2018-09-12T10:45:54.445Z,54.60
2018-09-12T10:48:25.924Z,53.30
2018-09-12T10:50:58.232Z,51.60
2018-09-12T10:53:29.543Z,48.90
2018-09-12T10:56:01.820Z,47.40
2018-09-12T10:58:34.261Z,48.10
2018-09-12T11:01:05.840Z,47.70
2018-09-12T11:03:37.565Z,48.70
2018-09-12T11:06:08.162Z,45.00
2018-09-12T11:08:38.706Z,43.40
2018-09-12T11:11:09.121Z,41.60
2018-09-12T11:13:39.512Z,41.80
2018-09-12T11:16:10.194Z,40.60
2018-09-12T11:18:40.554Z,39.70
2018-09-12T11:21:10.978Z,40.20
2018-09-12T11:23:42.223Z,40.70
2018-09-12T11:26:12.838Z,39.80
2018-09-12T11:28:43.342Z,39.50
2018-09-12T11:31:14.191Z,37.10
2018-09-12T11:33:45.473Z,36.00
2018-09-12T11:36:15.927Z,34.00
2018-09-12T11:38:46.330Z,33.40
2018-09-12T11:41:17.717Z,33.50
2018-09-12T11:43:48.178Z,33.00
2018-09-12T11:46:19.723Z,33.70
2018-09-12T11:48:51.710Z,32.30
2018-09-12T11:51:22.880Z,32.50
2018-09-12T11:53:55.384Z,32.90
2018-09-12T11:56:25.868Z,33.70
2018-09-12T11:58:57.437Z,33.10
2018-09-12T12:01:28.871Z,33.40
2018-09-12T12:04:00.006Z,35.00
2018-09-12T12:06:31.288Z,35.50
2018-09-12T12:09:03.345Z,36.40
2018-09-12T12:11:33.881Z,37.60
2018-09-12T12:14:05.862Z,36.60
2018-09-12T12:16:36.512Z,37.10
2018-09-12T12:19:09.008Z,37.30
2018-09-12T12:21:39.436Z,36.00
2018-09-12T12:24:09.948Z,37.70
2018-09-12T12:26:42.185Z,36.90
2018-09-12T12:29:14.042Z,36.80
2018-09-12T12:31:44.480Z,35.70
2018-09-12T12:34:14.764Z,35.40
2018-09-12T12:36:46.251Z,35.70
2018-09-12T12:39:16.591Z,34.30
2018-09-12T12:41:48.616Z,33.80
2018-09-12T12:44:19.503Z,32.20
2018-09-12T12:46:51.031Z,30.50
2018-09-12T12:49:21.473Z,31.10
2018-09-12T12:51:52.073Z,31.90
2018-09-12T12:54:24.268Z,32.40
2018-09-12T12:56:55.531Z,32.80
2018-09-12T12:59:29.384Z,32.80
2018-09-12T13:02:00.638Z,32.70
2018-09-12T13:04:31.030Z,33.60
2018-09-12T13:07:02.077Z,33.80
2018-09-12T13:09:32.422Z,33.70
2018-09-12T13:12:05.648Z,34.80
2018-09-12T13:14:37.153Z,36.20
2018-09-12T13:17:07.561Z,37.20
2018-09-12T13:19:38.555Z,40.70
2018-09-12T13:22:09.365Z,39.60
2018-09-12T13:24:42.000Z,40.40
2018-09-12T13:27:12.952Z,40.30
2018-09-12T13:29:43.397Z,40.90
2018-09-12T13:32:13.923Z,43.60
2018-09-12T13:34:45.169Z,45.50
2018-09-12T13:37:16.163Z,43.70
2018-09-12T13:39:46.824Z,42.80
2018-09-12T13:42:17.402Z,42.70
2018-09-12T13:44:47.869Z,43.30
2018-09-12T13:47:19.161Z,43.70
2018-09-12T13:49:49.686Z,45.30
2018-09-12T13:52:20.258Z,45.00
2018-09-12T13:54:50.924Z,45.90
2018-09-12T13:57:21.309Z,47.80
2018-09-12T13:59:52.704Z,49.00
2018-09-12T14:02:23.086Z,47.70
2018-09-12T14:04:53.583Z,46.80
2018-09-12T14:07:23.935Z,48.50
2018-09-12T14:09:54.545Z,49.00
2018-09-12T14:12:25.456Z,46.90
2018-09-12T14:14:57.593Z,46.70
2018-09-12T14:17:28.860Z,48.00
2018-09-12T14:19:59.599Z,47.70
2018-09-12T14:22:31.206Z,46.40
2018-09-12T14:25:01.930Z,46.70
2018-09-12T14:27:33.357Z,46.70
2018-09-12T14:30:03.837Z,47.80
2018-09-12T14:32:34.411Z,47.10
2018-09-12T14:35:04.959Z,46.40
2018-09-12T14:37:35.841Z,46.40
2018-09-12T14:40:07.184Z,45.70
2018-09-12T14:42:37.617Z,45.10
2018-09-12T14:45:09.566Z,45.70
2018-09-12T14:47:41.006Z,45.20
2018-09-12T14:50:12.225Z,45.10
2018-09-12T14:52:42.536Z,44.60
2018-09-12T14:55:14.135Z,45.40
2018-09-12T14:57:44.609Z,44.70
2018-09-12T15:00:21.484Z,44.40
2018-09-12T15:02:51.907Z,44.20
2018-09-12T15:05:22.443Z,44.40
2018-09-12T15:07:53.774Z,43.90
2018-09-12T15:10:24.738Z,43.00
2018-09-12T15:12:55.892Z,43.00
2018-09-12T15:15:26.849Z,42.30
2018-09-12T15:17:57.907Z,42.20
2018-09-12T15:20:28.323Z,42.20
2018-09-12T15:22:58.660Z,42.00
2018-09-12T15:25:29.329Z,40.80
2018-09-12T15:27:59.795Z,40.50
2018-09-12T15:30:30.244Z,40.50
2018-09-12T15:33:01.008Z,39.80
2018-09-12T15:35:31.743Z,39.00
2018-09-12T15:38:02.153Z,37.80
2018-09-12T15:40:32.907Z,36.70
2018-09-12T15:43:03.497Z,36.10
2018-09-12T15:45:34.066Z,35.30
2018-09-12T15:48:04.381Z,35.60
2018-09-12T15:50:34.691Z,34.40
2018-09-12T15:53:04.996Z,35.10
2018-09-12T15:55:41.197Z,34.40
2018-09-12T15:58:11.644Z,34.50
2018-09-12T16:00:41.844Z,33.80
2018-09-12T16:03:12.147Z,34.30
2018-09-12T16:05:42.510Z,33.90
2018-09-12T16:08:12.797Z,34.80
2018-09-12T16:10:43.440Z,35.70
2018-09-12T16:13:15.078Z,37.00
2018-09-12T16:15:45.734Z,39.30
2018-09-12T16:18:16.271Z,40.50
2018-09-12T16:20:47.047Z,42.20
2018-09-12T16:23:17.264Z,44.90
2018-09-12T16:25:47.951Z,47.60
2018-09-12T16:28:18.483Z,48.90
2018-09-12T16:30:49.085Z,50.30
2018-09-12T16:33:19.800Z,51.80
2018-09-12T16:35:51.083Z,53.00
2018-09-12T16:38:21.430Z,53.90
2018-09-12T16:40:51.863Z,54.80
2018-09-12T16:43:23.214Z,55.80
2018-09-12T16:45:54.914Z,56.80
2018-09-12T16:48:25.841Z,57.90
2018-09-12T16:50:56.751Z,58.70
2018-09-12T16:53:27.468Z,59.40
2018-09-12T16:55:58.710Z,60.40
2018-09-12T16:58:32.923Z,61.40
2018-09-12T17:01:09.800Z,62.70
2018-09-12T17:03:43.525Z,63.60
2018-09-12T17:06:14.661Z,64.60
2018-09-12T17:08:51.779Z,65.20
2018-09-12T17:11:27.046Z,65.90
2018-09-12T17:14:00.539Z,66.90
2018-09-12T17:16:35.815Z,67.60
2018-09-12T17:19:10.398Z,68.10
2018-09-12T17:21:41.908Z,68.60
2018-09-12T17:24:14.342Z,69.00
2018-09-12T17:26:44.748Z,69.60
2018-09-12T17:29:15.386Z,70.40
2018-09-12T17:31:46.572Z,71.70
2018-09-12T17:34:18.853Z,72.40
2018-09-12T17:37:02.483Z,72.70
2018-09-12T17:39:33.939Z,73.30
2018-09-12T17:42:23.173Z,74.00
2018-09-12T17:44:56.780Z,74.50
2018-09-12T17:47:31.581Z,75.10
2018-09-12T17:50:04.341Z,75.50
2018-09-12T17:52:47.795Z,76.30
2018-09-12T17:55:20.476Z,76.50
2018-09-12T17:57:51.999Z,76.90
2018-09-12T18:00:41.221Z,77.70
2018-09-12T18:03:11.809Z,78.10
2018-09-12T18:05:45.326Z,78.90
2018-09-12T18:08:16.280Z,78.80
2018-09-12T18:10:46.713Z,79.70
2018-09-12T18:13:17.029Z,80.10
2018-09-12T18:15:47.439Z,80.10
2018-09-12T18:18:17.792Z,80.60
2018-09-12T18:20:48.076Z,81.20
2018-09-12T18:23:18.468Z,81.70
2018-09-12T18:25:49.516Z,82.00
2018-09-12T18:28:19.972Z,82.60
2018-09-12T18:30:50.356Z,82.60
2018-09-12T18:33:20.832Z,82.80
2018-09-12T18:35:51.487Z,83.40
2018-09-12T18:38:25.593Z,83.60
2018-09-12T18:40:55.925Z,83.70
2018-09-12T18:43:26.660Z,84.20
2018-09-12T18:45:57.249Z,84.70
2018-09-12T18:48:27.857Z,85.00
2018-09-12T18:50:59.004Z,85.40
2018-09-12T18:53:29.917Z,85.60
2018-09-12T18:56:01.070Z,85.90
2018-09-12T18:58:33.240Z,85.40
2018-09-12T19:01:03.740Z,85.00
2018-09-12T19:03:34.268Z,85.40
2018-09-12T19:06:05.856Z,85.60
2018-09-12T19:08:37.674Z,86.30
2018-09-12T19:11:08.086Z,86.50
2018-09-12T19:13:38.542Z,86.70
2018-09-12T19:16:09.037Z,86.10
2018-09-12T19:18:39.856Z,86.70
2018-09-12T19:21:10.787Z,87.40
2018-09-12T19:23:41.449Z,87.40
2018-09-12T19:26:12.750Z,87.80
2018-09-12T19:28:43.578Z,89.00
2018-09-12T19:31:14.991Z,90.50
2018-09-12T19:33:46.907Z,90.80
2018-09-12T19:36:30.900Z,91.20
2018-09-12T19:39:12.552Z,91.30
2018-09-12T19:41:43.088Z,91.10
2018-09-12T19:44:14.264Z,91.20
2018-09-12T19:46:45.050Z,91.30
2018-09-12T19:49:15.784Z,91.40
2018-09-12T19:51:47.187Z,91.30
2018-09-12T19:54:18.158Z,91.40
2018-09-12T19:56:49.368Z,91.60
2018-09-12T19:59:19.775Z,91.70
2018-09-12T20:01:50.436Z,91.80
2018-09-12T20:04:21.087Z,92.00
2018-09-12T20:06:51.994Z,92.10
2018-09-12T20:09:29.762Z,92.00
2018-09-12T20:12:00.437Z,92.10
2018-09-12T20:14:31.481Z,92.20
2018-09-12T20:17:01.727Z,92.80
2018-09-12T20:19:32.341Z,92.60
2018-09-12T20:22:02.649Z,92.60
2018-09-12T20:24:32.921Z,92.60
2018-09-12T20:27:03.198Z,92.70
2018-09-12T20:29:33.515Z,92.50
2018-09-12T20:32:03.916Z,92.50
2018-09-12T20:34:34.399Z,92.50
2018-09-12T20:37:04.813Z,92.60
2018-09-12T20:39:36.245Z,92.50
2018-09-12T20:42:06.749Z,92.40
2018-09-12T20:44:37.017Z,92.60
2018-09-12T20:47:07.320Z,92.60
2018-09-12T20:49:37.623Z,92.40
2018-09-12T20:52:08.853Z,92.60
2018-09-12T20:54:39.445Z,92.80
2018-09-12T20:57:09.851Z,92.80
2018-09-12T20:59:40.104Z,92.80
2018-09-12T21:02:10.391Z,92.80
2018-09-12T21:04:40.656Z,92.60
2018-09-12T21:07:10.915Z,92.60
2018-09-12T21:09:41.305Z,92.70
2018-09-12T21:12:11.564Z,92.40
2018-09-12T21:14:41.831Z,92.30
2018-09-12T21:17:12.693Z,92.50
2018-09-12T21:19:42.973Z,92.50
2018-09-12T21:22:13.232Z,92.50
2018-09-12T21:24:43.500Z,92.50
2018-09-12T21:27:13.900Z,92.40
2018-09-12T21:29:44.206Z,92.60
2018-09-12T21:32:14.477Z,92.60
2018-09-12T21:34:44.808Z,92.60
2018-09-12T21:37:15.107Z,92.80
2018-09-12T21:39:46.188Z,93.00
2018-09-12T21:42:16.468Z,93.00
2018-09-12T21:44:46.700Z,92.90
2018-09-12T21:47:16.961Z,92.80
2018-09-12T21:49:47.288Z,92.70
2018-09-12T21:52:17.552Z,93.00
2018-09-12T21:54:47.952Z,93.30
2018-09-12T21:57:22.033Z,92.90
2018-09-12T21:59:52.296Z,92.90
2018-09-12T22:02:22.590Z,92.70
2018-09-12T22:04:52.868Z,92.80
2018-09-12T22:07:23.132Z,93.10
2018-09-12T22:09:53.443Z,93.00
2018-09-12T22:12:23.703Z,92.90
2018-09-12T22:14:54.003Z,93.00
2018-09-12T22:17:24.265Z,93.20
2018-09-12T22:19:54.554Z,93.40
2018-09-12T22:22:25.321Z,93.00
2018-09-12T22:24:55.596Z,92.80
2018-09-12T22:27:25.856Z,92.70
2018-09-12T22:29:56.376Z,92.80
2018-09-12T22:32:26.612Z,92.80
2018-09-12T22:34:56.889Z,92.80
2018-09-12T22:37:27.189Z,92.80
2018-09-12T22:39:57.492Z,92.80
2018-09-12T22:42:27.759Z,92.90
2018-09-12T22:44:58.019Z,92.80
2018-09-12T22:47:28.293Z,92.90
2018-09-12T22:49:58.569Z,93.00
2018-09-12T22:52:28.852Z,93.10
2018-09-12T22:54:59.120Z,93.20
2018-09-12T22:57:29.424Z,93.60
2018-09-12T22:59:59.721Z,93.50
2018-09-12T23:02:30.017Z,93.40
2018-09-12T23:05:00.276Z,93.30
2018-09-12T23:07:30.544Z,93.30
2018-09-12T23:10:00.840Z,93.30
2018-09-12T23:12:31.093Z,93.40
2018-09-12T23:15:01.324Z,93.60
2018-09-12T23:17:31.676Z,93.50
2018-09-12T23:20:01.906Z,93.40
2018-09-12T23:22:32.285Z,93.40
2018-09-12T23:25:02.562Z,93.50
2018-09-12T23:27:32.883Z,93.40
2018-09-12T23:30:03.203Z,93.70
2018-09-12T23:32:33.508Z,93.30
2018-09-12T23:35:03.767Z,93.40
2018-09-12T23:37:34.200Z,93.20
2018-09-12T23:40:04.525Z,93.20
2018-09-12T23:42:34.833Z,93.20
2018-09-12T23:45:05.324Z,93.30
2018-09-12T23:47:35.716Z,93.50
2018-09-12T23:50:06.245Z,93.60
2018-09-12T23:52:36.515Z,93.50
2018-09-12T23:55:06.881Z,93.60
2018-09-12T23:57:37.200Z,93.60
